Time;durP1;ratioP1;P1;durP2;ratioP2;P2;SDS_P1;SDS_P2;PMS_P1;PMS_P2;Temp;Humidity;BMP_temperature;BMP_pressure;BME280_temperature;BME280_humidity;BME280_pressure;Samples;Min_cycle;Max_cycle;Signal;HPM_P1;HPM_P2
2021/03/26 00:01:49;;;;;;;23.33;11.43;;;;;;;7.13;75.05;99834.97;4993032;28;20035;-61
2021/03/26 00:04:14;;;;;;;17.98;10.95;;;;;;;7.16;75.00;99838.25;4993304;28;20035;-60
2021/03/26 00:06:42;;;;;;;22.15;10.88;;;;;;;7.11;75.06;99838.88;4992973;28;20053;-60
2021/03/26 00:09:08;;;;;;;19.83;11.35;;;;;;;7.07;75.07;99843.81;4993356;28;20043;-60
2021/03/26 00:11:34;;;;;;;18.52;11.00;;;;;;;7.17;74.52;99837.25;4993080;28;20042;-61
2021/03/26 00:13:59;;;;;;;21.70;10.70;;;;;;;7.21;74.52;99838.47;4993743;28;20050;-60
2021/03/26 00:16:25;;;;;;;21.67;11.25;;;;;;;7.10;75.34;99838.06;4993056;28;20042;-60
2021/03/26 00:18:50;;;;;;;20.50;11.45;;;;;;;7.13;75.04;99836.84;4993324;28;20354;-60
2021/03/26 00:21:16;;;;;;;21.90;10.68;;;;;;;7.27;74.22;99843.00;4992934;28;20042;-60
2021/03/26 00:23:41;;;;;;;18.02;10.45;;;;;;;7.27;74.08;99833.16;4992256;28;20031;-60
2021/03/26 00:26:07;;;;;;;21.50;10.95;;;;;;;7.16;74.37;99825.75;4993130;28;20092;-60
2021/03/26 00:28:32;;;;;;;18.10;10.27;;;;;;;7.19;74.30;99825.38;4993613;28;20026;-60
2021/03/26 00:31:00;;;;;;;18.55;11.25;;;;;;;7.14;74.42;99827.81;4993117;28;20038;-60
2021/03/26 00:33:26;;;;;;;20.02;11.10;;;;;;;7.08;74.70;99828.63;4996144;28;20072;-60
2021/03/26 00:35:54;;;;;;;20.10;10.85;;;;;;;7.06;74.77;99825.34;4996745;28;20046;-60
2021/03/26 00:38:19;;;;;;;18.55;9.98;;;;;;;7.01;74.75;99825.94;4997343;28;20389;-60
2021/03/26 00:40:44;;;;;;;20.90;10.80;;;;;;;6.97;74.92;99816.75;4996740;28;20042;-61
2021/03/26 00:43:10;;;;;;;22.33;11.50;;;;;;;6.87;75.67;99819.81;4997197;28;20038;-60
2021/03/26 00:45:36;;;;;;;19.83;11.13;;;;;;;6.88;75.35;99812.63;4995462;28;20065;-61
2021/03/26 00:48:02;;;;;;;18.90;10.68;;;;;;;6.85;75.28;99819.19;4996947;28;20483;-60
2021/03/26 00:50:29;;;;;;;21.73;11.63;;;;;;;6.79;75.88;99821.84;4996346;28;20039;-60
2021/03/26 00:52:56;;;;;;;23.60;11.25;;;;;;;6.84;75.50;99816.72;4995754;28;20037;-60
2021/03/26 00:55:22;;;;;;;22.25;11.32;;;;;;;6.82;75.72;99814.28;4996646;28;20527;-60
2021/03/26 00:57:47;;;;;;;24.85;12.43;;;;;;;6.77;75.80;99810.59;4996966;28;20030;-60
2021/03/26 01:00:15;;;;;;;16.17;9.85;;;;;;;6.72;76.05;99811.19;4996444;28;20049;-60
2021/03/26 01:02:41;;;;;;;21.15;10.43;;;;;;;6.74;76.16;99816.28;4996635;28;20030;-60
2021/03/26 01:05:08;;;;;;;25.23;11.88;;;;;;;6.73;76.03;99809.34;4994869;28;20037;-60
2021/03/26 01:07:33;;;;;;;24.55;11.07;;;;;;;6.68;76.00;99808.09;4996466;28;20113;-60
2021/03/26 01:09:59;;;;;;;23.75;11.48;;;;;;;6.64;76.05;99798.88;4996375;28;20096;-60
2021/03/26 01:12:24;;;;;;;21.05;10.95;;;;;;;6.63;76.20;99802.56;4996055;28;20038;-60
2021/03/26 01:14:50;;;;;;;20.30;12.05;;;;;;;6.65;76.25;99802.38;4996360;28;20022;-60
2021/03/26 01:17:15;;;;;;;21.48;11.90;;;;;;;6.62;76.47;99803.59;4995899;28;20393;-60
2021/03/26 01:19:42;;;;;;;22.95;12.02;;;;;;;6.65;76.52;99797.84;4996196;28;20031;-61
2021/03/26 01:22:08;;;;;;;20.88;11.50;;;;;;;6.62;76.44;99802.78;4995686;28;20397;-60
2021/03/26 01:24:33;;;;;;;21.25;12.48;;;;;;;6.67;76.49;99795.81;4996108;28;20035;-60
2021/03/26 01:26:59;;;;;;;18.92;12.43;;;;;;;6.65;76.56;99797.84;4995629;28;20038;-60
2021/03/26 01:29:25;;;;;;;21.95;12.23;;;;;;;6.64;76.15;99796.22;4994681;28;20037;-60
2021/03/26 01:31:50;;;;;;;27.17;13.75;;;;;;;6.62;76.33;99790.28;4994151;28;20117;-60
2021/03/26 01:34:15;;;;;;;20.88;12.10;;;;;;;6.61;76.37;99785.94;4995869;28;20058;-60
2021/03/26 01:36:41;;;;;;;17.35;11.25;;;;;;;6.57;76.37;99776.75;4995517;28;20034;-60
2021/03/26 01:39:06;;;;;;;19.27;11.50;;;;;;;6.45;76.74;99781.03;4995764;28;20389;-60
2021/03/26 01:41:36;;;;;;;20.23;11.50;;;;;;;6.41;77.02;99774.44;4994840;28;20133;-60
2021/03/26 01:44:02;;;;;;;21.17;13.25;;;;;;;6.30;77.91;99767.06;4994694;28;20035;-60
2021/03/26 01:46:28;;;;;;;21.45;11.90;;;;;;;6.31;77.75;99768.69;4995503;28;20034;-60
2021/03/26 01:48:55;;;;;;;22.23;11.73;;;;;;;6.30;77.64;99767.06;4994434;28;20085;-60
2021/03/26 01:51:23;;;;;;;23.63;12.73;;;;;;;6.31;77.26;99763.38;4995469;28;20069;-60
2021/03/26 01:53:49;;;;;;;20.85;12.25;;;;;;;6.30;77.67;99761.75;4995860;28;20421;-60
2021/03/26 01:56:14;;;;;;;16.60;11.43;;;;;;;6.36;77.30;99771.56;4995249;28;20042;-60
2021/03/26 01:58:39;;;;;;;24.70;11.52;;;;;;;6.39;77.16;99763.16;4995587;28;20365;-60
2021/03/26 02:01:13;;;;;;;22.05;12.55;;;;;;;6.34;77.35;99768.28;4995150;28;20038;-60
2021/03/26 02:03:41;;;;;;;21.95;12.82;;;;;;;6.39;77.06;99763.16;4994370;28;20120;-60
2021/03/26 02:06:31;;;;;;;26.27;12.55;;;;;;;6.40;77.25;99762.97;4995223;28;20087;-60
2021/03/26 02:09:17;;;;;;;23.27;13.30;;;;;;;6.41;77.20;99753.16;4990180;28;20404;-60
2021/03/26 02:11:55;;;;;;;22.73;12.65;;;;;;;6.56;76.64;99756.44;4979853;28;20434;-61
2021/03/26 02:14:23;;;;;;;22.95;11.52;;;;;;;6.57;76.49;99757.28;4995612;28;20038;-60
2021/03/26 02:16:49;;;;;;;26.73;14.05;;;;;;;6.52;76.53;99749.91;4994962;28;20034;-60
2021/03/26 02:19:45;;;;;;;24.23;13.35;;;;;;;6.54;76.51;99747.00;4995324;28;20122;-60
2021/03/26 02:22:11;;;;;;;20.85;13.05;;;;;;;6.47;76.67;99749.69;4994808;28;20458;-60
2021/03/26 02:24:37;;;;;;;21.38;11.75;;;;;;;6.37;77.16;99754.59;4977895;28;20025;-61
2021/03/26 02:27:09;;;;;;;28.73;13.65;;;;;;;6.30;77.12;99749.25;4993679;28;20038;-60
2021/03/26 02:29:36;;;;;;;21.65;13.88;;;;;;;6.26;77.27;99745.34;4995046;28;20389;-60
2021/03/26 02:32:33;;;;;;;27.55;13.98;;;;;;;6.19;77.57;99755.97;4994555;28;20042;-60
2021/03/26 02:35:29;;;;;;;22.17;12.48;;;;;;;6.10;77.51;99759.84;4995221;28;20034;-60
2021/03/26 02:38:02;;;;;;;24.00;12.15;;;;;;;6.04;77.96;99747.31;4994552;28;20057;-60
2021/03/26 02:40:45;;;;;;;25.42;13.27;;;;;;;5.94;78.12;99747.72;4993429;28;20485;-60
2021/03/26 02:43:32;;;;;;;25.00;13.68;;;;;;;5.90;79.01;99756.28;4994818;28;20030;-60
2021/03/26 02:46:14;;;;;;;25.05;13.27;;;;;;;5.72;78.96;99749.66;4993142;28;20537;-60
2021/03/26 02:48:47;;;;;;;25.45;13.52;;;;;;;5.62;79.22;99749.19;4993497;28;20049;-60
2021/03/26 02:51:21;;;;;;;18.95;9.90;;;;;;;5.58;79.49;99747.94;4977515;28;20061;-60
2021/03/26 02:54:21;;;;;;;24.33;13.57;;;;;;;5.45;79.93;99742.56;4992608;28;20135;-60
2021/03/26 02:57:01;;;;;;;27.85;14.55;;;;;;;5.45;79.91;99745.22;4980908;28;20125;-59
2021/03/26 02:59:36;;;;;;;24.63;13.73;;;;;;;5.34;80.08;99750.06;4994509;28;20030;-60
2021/03/26 03:02:01;;;;;;;28.88;15.07;;;;;;;5.33;80.36;99751.06;4977104;28;20045;-60
2021/03/26 03:04:30;;;;;;;26.42;14.70;;;;;;;5.30;80.16;99748.81;4976933;28;20030;-60
2021/03/26 03:07:05;;;;;;;27.92;14.10;;;;;;;5.28;80.29;99740.19;4976607;28;20117;-60
2021/03/26 03:09:32;;;;;;;27.45;14.52;;;;;;;5.25;80.41;99740.59;4992907;28;20084;-60
2021/03/26 03:12:18;;;;;;;30.27;15.43;;;;;;;5.16;80.67;99739.09;4992605;28;20430;-60
2021/03/26 03:14:47;;;;;;;25.63;14.65;;;;;;;5.17;81.04;99746.88;4977572;28;20030;-60
2021/03/26 03:17:25;;;;;;;32.28;15.30;;;;;;;5.13;80.76;99737.66;4992478;28;20034;-60
2021/03/26 03:20:00;;;;;;;25.45;13.00;;;;;;;5.10;80.65;99739.91;4992918;28;20062;-60
2021/03/26 03:22:42;;;;;;;29.10;14.32;;;;;;;5.11;80.41;99741.53;4977000;28;20038;-60
2021/03/26 03:25:20;;;;;;;29.33;15.73;;;;;;;5.00;81.21;99739.41;4977535;28;20026;-60
2021/03/26 03:28:06;;;;;;;22.92;14.52;;;;;;;4.92;81.20;99743.84;4994206;28;20038;-60
2021/03/26 03:30:41;;;;;;;25.95;13.85;;;;;;;4.94;81.17;99741.84;4992112;28;20038;-60
2021/03/26 03:33:12;;;;;;;28.45;15.40;;;;;;;4.99;81.30;99754.50;4994078;28;20066;-60
2021/03/26 03:35:55;;;;;;;26.38;15.23;;;;;;;4.93;81.55;99748.16;4992162;28;20050;-60
2021/03/26 03:38:51;;;;;;;33.85;15.00;;;;;;;4.87;81.87;99748.94;4992527;28;20041;-60
2021/03/26 03:41:32;;;;;;;21.55;14.02;;;;;;;4.92;81.72;99754.47;4991972;28;20042;-60
2021/03/26 03:44:13;;;;;;;27.52;15.23;;;;;;;4.88;81.56;99747.09;4992522;28;20077;-60
2021/03/26 03:46:38;;;;;;;26.63;14.45;;;;;;;4.76;82.21;99744.13;4993420;28;20038;-60
2021/03/26 03:49:15;;;;;;;25.40;14.73;;;;;;;4.71;82.06;99738.56;4992296;28;20040;-60
2021/03/26 03:51:46;;;;;;;26.67;15.77;;;;;;;4.70;82.50;99734.28;4991928;28;20039;-60
2021/03/26 03:54:21;;;;;;;28.20;15.35;;;;;;;4.65;82.88;99726.06;4977005;28;20030;-60
2021/03/26 03:56:55;;;;;;;33.33;14.63;;;;;;;4.82;82.53;99726.59;4976188;28;20117;-60
2021/03/26 03:59:53;;;;;;;23.88;13.02;;;;;;;4.81;82.64;99733.75;4976995;28;20034;-60
2021/03/26 04:02:35;;;;;;;31.42;16.02;;;;;;;4.70;82.31;99723.66;4991781;28;20069;-60
2021/03/26 04:05:06;;;;;;;27.73;15.50;;;;;;;4.59;82.68;99724.16;4976438;28;20414;-60
2021/03/26 04:07:39;;;;;;;24.52;14.05;;;;;;;4.45;82.54;99734.69;4976623;28;20030;-60
2021/03/26 04:10:08;;;;;;;33.35;15.82;;;;;;;4.29;83.13;99737.56;4991480;28;20050;-60
2021/03/26 04:12:38;;;;;;;28.17;14.93;;;;;;;4.20;83.81;99749.34;4992234;28;20022;-60
2021/03/26 04:15:06;;;;;;;31.17;16.17;;;;;;;4.11;83.91;99745.97;4991903;28;20029;-60
2021/03/26 04:18:02;;;;;;;27.88;15.88;;;;;;;4.02;84.35;99747.91;4993348;28;20036;-60
2021/03/26 04:20:52;;;;;;;26.88;15.23;;;;;;;3.95;84.54;99741.72;4988162;28;20126;-60
2021/03/26 04:23:32;;;;;;;31.52;15.73;;;;;;;3.91;85.36;99735.13;4992037;28;20489;-60
2021/03/26 04:26:13;;;;;;;27.60;15.88;;;;;;;3.86;84.88;99740.16;4959982;28;20396;-61
2021/03/26 04:28:42;;;;;;;31.80;15.05;;;;;;;3.84;84.63;99724.47;4992132;28;20070;-60
2021/03/26 04:31:11;;;;;;;34.00;17.17;;;;;;;3.93;85.50;99727.00;4991583;28;20049;-60
2021/03/26 04:33:36;;;;;;;27.35;14.95;;;;;;;4.04;85.00;99723.84;4991991;28;20073;-60
2021/03/26 04:36:03;;;;;;;33.15;18.17;;;;;;;4.17;84.86;99723.16;4992842;28;20054;-60
2021/03/26 04:38:51;;;;;;;30.50;18.35;;;;;;;4.14;84.73;99721.69;4959810;28;20377;-60
2021/03/26 04:41:23;;;;;;;35.60;17.80;;;;;;;4.13;84.67;99727.22;4978226;28;20395;-60
2021/03/26 04:43:53;;;;;;;29.10;17.25;;;;;;;4.01;84.75;99721.56;4991798;28;20054;-60
2021/03/26 04:46:24;;;;;;;34.70;17.00;;;;;;;3.91;85.45;99724.53;4975604;28;20045;-60
2021/03/26 04:48:53;;;;;;;26.58;16.15;;;;;;;3.88;84.43;99719.59;4976032;28;20030;-60
2021/03/26 04:51:46;;;;;;;30.45;16.40;;;;;;;3.80;86.04;99722.38;4992547;28;20058;-60
2021/03/26 04:54:18;;;;;;;43.50;20.15;;;;;;;3.80;86.05;99717.88;4987639;28;20474;-60
2021/03/26 04:56:46;;;;;;;36.47;20.25;;;;;;;3.83;86.18;99716.69;4992612;28;20047;-60
2021/03/26 04:59:11;;;;;;;42.10;19.73;;;;;;;3.81;85.79;99716.03;4975735;28;20089;-61
2021/03/26 05:01:37;;;;;;;35.60;18.70;;;;;;;3.77;86.07;99717.41;4990995;28;20042;-61
2021/03/26 05:04:17;;;;;;;35.10;19.02;;;;;;;3.75;86.13;99714.16;4991770;28;20104;-60
2021/03/26 05:06:49;;;;;;;33.00;18.15;;;;;;;3.57;85.17;99711.88;4974480;28;20038;-60
2021/03/26 05:09:23;;;;;;;31.13;17.08;;;;;;;3.61;85.37;99707.84;4956154;28;20054;-60
2021/03/26 05:11:52;;;;;;;36.92;17.98;;;;;;;3.54;86.06;99705.13;4971966;28;20035;-60
2021/03/26 05:14:21;;;;;;;30.75;18.13;;;;;;;3.32;87.13;99706.06;4972184;28;20050;-60
2021/03/26 05:17:07;;;;;;;35.80;17.88;;;;;;;3.22;86.70;99709.81;4956985;28;20041;-60
2021/03/26 05:19:37;;;;;;;36.47;20.95;;;;;;;3.43;87.00;99713.56;4975844;28;20512;-60
2021/03/26 05:22:39;;;;;;;37.88;21.85;;;;;;;3.56;86.45;99716.38;4959099;28;20039;-60
2021/03/26 05:25:27;;;;;;;44.10;21.83;;;;;;;3.58;86.49;99713.53;4976107;28;20050;-62
2021/03/26 05:27:53;;;;;;;35.90;19.67;;;;;;;3.51;85.15;99718.75;4975382;28;20454;-62
2021/03/26 05:30:21;;;;;;;32.83;20.13;;;;;;;3.51;85.46;99721.41;4943076;28;20027;-60
2021/03/26 05:32:56;;;;;;;33.95;20.73;;;;;;;3.37;84.54;99728.38;4959626;28;20106;-60
2021/03/26 05:35:28;;;;;;;33.20;19.40;;;;;;;3.43;85.53;99722.31;4975067;28;20477;-60
2021/03/26 05:38:12;;;;;;;28.17;17.58;;;;;;;3.24;86.37;99726.38;4975590;28;20031;-60
2021/03/26 05:40:47;;;;;;;33.67;18.58;;;;;;;3.10;86.46;99723.69;4959141;28;20050;-59
2021/03/26 05:43:34;;;;;;;27.30;17.20;;;;;;;3.10;86.85;99719.22;4976918;28;20031;-59
2021/03/26 05:46:37;;;;;;;36.30;21.92;;;;;;;3.24;87.29;99723.72;4976213;28;20412;-59
2021/03/26 05:49:18;;;;;;;43.83;24.17;;;;;;;3.62;86.70;99726.25;4976885;28;20117;-59
2021/03/26 05:52:02;;;;;;;42.65;20.55;;;;;;;3.71;86.30;99723.47;4975093;28;20422;-59
2021/03/26 05:54:39;;;;;;;38.13;19.58;;;;;;;3.98;85.95;99720.13;4975389;28;20478;-60
2021/03/26 05:57:32;;;;;;;37.22;22.13;;;;;;;4.19;85.68;99721.13;4976006;28;20043;-59
2021/03/26 06:00:03;;;;;;;35.83;20.85;;;;;;;4.27;84.97;99724.50;4976631;28;20038;-59
2021/03/26 06:02:34;;;;;;;;;;;;;;;4.30;84.60;99718.81;4976537;28;20047;-60
2021/03/26 06:05:06;;;;;;;;;;;;;;;4.43;83.91;99723.41;4976591;28;20320;-60
2021/03/26 06:07:55;;;;;;;27.13;17.27;;;;;;;4.65;81.50;99726.88;4974694;28;19925;-59
2021/03/26 06:10:39;;;;;;;28.02;16.80;;;;;;;4.61;82.54;99724.81;4975898;28;20047;-60
2021/03/26 06:13:17;;;;;;;33.25;18.15;;;;;;;4.70;82.89;99728.97;4975218;28;20086;-60
2021/03/26 06:16:01;;;;;;;34.05;18.50;;;;;;;4.88;82.91;99728.50;4975916;28;20097;-60
2021/03/26 06:18:54;;;;;;;37.15;19.73;;;;;;;5.09;80.29;99717.81;4976199;28;20061;-60
2021/03/26 06:21:43;;;;;;;25.33;16.08;;;;;;;6.13;74.83;99719.50;4975684;28;20062;-60
2021/03/26 06:24:46;;;;;;;28.75;15.98;;;;;;;8.34;67.81;99737.53;4974636;28;20035;-60
2021/03/26 06:27:15;;;;;;;22.08;13.98;;;;;;;9.54;60.43;99736.50;4975511;28;20047;-60
2021/03/26 06:30:34;;;;;;;23.67;13.80;;;;;;;9.63;59.42;99737.84;4975965;28;20018;-59
2021/03/26 06:33:23;;;;;;;22.88;13.57;;;;;;;9.95;58.48;99726.94;4916021;29;20411;-60
2021/03/26 06:36:18;;;;;;;19.25;13.35;;;;;;;10.14;57.58;99736.59;4974438;28;20126;-60
2021/03/26 06:38:57;;;;;;;22.85;12.90;;;;;;;10.74;55.85;99738.41;4974749;28;20034;-60
2021/03/26 06:41:55;;;;;;;22.50;12.57;;;;;;;11.20;54.07;99736.78;4974243;28;20035;-60
2021/03/26 06:44:36;;;;;;;18.17;12.18;;;;;;;11.50;53.37;99730.47;4974619;28;20092;-60
2021/03/26 06:47:29;;;;;;;16.75;12.20;;;;;;;12.10;51.17;99731.94;4974045;28;20042;-60
2021/03/26 06:50:01;;;;;;;20.35;13.43;;;;;;;12.21;51.67;99731.09;4975603;28;20378;-60
2021/03/26 06:53:03;;;;;;;18.02;12.70;;;;;;;12.21;51.01;99733.78;4973975;28;20054;-60
2021/03/26 06:55:36;;;;;;;17.98;11.88;;;;;;;12.30;51.58;99732.34;4973877;28;20520;-60
2021/03/26 06:58:23;;;;;;;23.13;13.90;;;;;;;12.78;50.50;99724.81;4974268;28;20033;-60
2021/03/26 07:01:23;;;;;;;18.13;13.68;;;;;;;12.94;50.46;99734.75;4959917;28;20035;-60
2021/03/26 07:04:14;;;;;;;22.35;14.68;;;;;;;13.95;48.42;99731.03;4975080;28;20404;-60
2021/03/26 07:06:57;;;;;;;22.83;15.68;;;;;;;12.88;50.75;99734.91;4974888;28;20505;-60
2021/03/26 07:09:41;;;;;;;24.67;16.70;;;;;;;12.27;53.35;99732.00;4974727;28;20074;-60
2021/03/26 07:12:42;;;;;;;23.90;17.45;;;;;;;12.23;53.99;99726.31;4974716;28;20043;-60
2021/03/26 07:15:12;;;;;;;26.70;18.92;;;;;;;13.32;50.54;99722.41;4973428;28;20026;-60
2021/03/26 07:18:02;;;;;;;24.17;18.10;;;;;;;13.56;49.84;99728.38;4974924;28;20101;-60
2021/03/26 07:20:46;;;;;;;26.27;17.38;;;;;;;13.79;48.83;99734.59;4974798;28;20276;-60
2021/03/26 07:23:49;;;;;;;26.70;18.02;;;;;;;13.03;50.78;99724.41;4975057;28;20054;-60
2021/03/26 07:26:41;;;;;;;26.02;17.58;;;;;;;12.95;52.08;99722.09;4974378;28;20046;-60
2021/03/26 07:29:44;;;;;;;23.10;18.55;;;;;;;13.35;50.82;99726.47;4973963;28;20114;-60
2021/03/26 07:32:18;;;;;;;29.85;17.77;;;;;;;12.56;53.30;99724.72;4974379;28;20062;-60
2021/03/26 07:35:18;;;;;;;23.83;16.60;;;;;;;12.56;52.85;99724.72;4974843;28;20034;-60
2021/03/26 07:38:02;;;;;;;24.07;16.93;;;;;;;12.41;53.25;99724.47;4973322;28;20043;-60
2021/03/26 07:40:54;;;;;;;24.23;17.15;;;;;;;11.90;54.90;99727.00;4973787;28;20043;-60
2021/03/26 07:43:22;;;;;;;25.67;18.83;;;;;;;13.09;51.77;99728.78;4959216;28;20035;-59
2021/03/26 07:46:03;;;;;;;26.63;19.25;;;;;;;11.29;56.74;99705.06;4973127;28;20058;-59
2021/03/26 07:49:02;;;;;;;29.45;20.50;;;;;;;10.07;61.06;99717.09;4973400;28;20030;-60
2021/03/26 07:51:35;;;;;;;26.17;18.42;;;;;;;12.02;56.37;99713.53;4974251;28;20133;-60
2021/03/26 07:54:23;;;;;;;25.65;18.17;;;;;;;11.84;55.66;99707.28;4973117;28;20425;-59
2021/03/26 07:57:06;;;;;;;25.70;18.30;;;;;;;12.55;54.61;99706.94;4973935;28;20402;-60
2021/03/26 07:59:34;;;;;;;24.02;18.58;;;;;;;12.39;54.87;99708.56;4973426;28;20434;-59
2021/03/26 08:02:33;;;;;;;28.65;19.80;;;;;;;11.88;56.53;99704.94;4974021;28;20065;-60
2021/03/26 08:05:10;;;;;;;25.85;18.00;;;;;;;13.05;52.93;99700.72;4973408;28;20109;-59
2021/03/26 08:07:48;;;;;;;25.95;18.17;;;;;;;13.07;53.13;99703.19;4974011;28;20394;-60
2021/03/26 08:10:35;;;;;;;29.33;18.02;;;;;;;12.26;54.72;99704.31;4973707;28;20043;-60
2021/03/26 08:13:28;;;;;;;26.85;19.08;;;;;;;11.97;57.24;99703.50;4957097;28;20022;-60
2021/03/26 08:16:12;;;;;;;25.13;16.85;;;;;;;12.52;54.27;99710.13;4972384;28;20137;-60
2021/03/26 08:18:52;;;;;;;26.90;18.52;;;;;;;13.29;53.48;99708.63;4974368;28;20433;-60
2021/03/26 08:21:32;;;;;;;27.60;18.13;;;;;;;13.58;51.91;99707.41;4973836;28;20039;-59
2021/03/26 08:24:27;;;;;;;25.63;18.38;;;;;;;12.88;53.28;99705.31;4974144;28;20390;-60
2021/03/26 08:27:11;;;;;;;28.45;16.42;;;;;;;11.72;58.44;99701.13;4972431;28;20053;-60
2021/03/26 08:29:51;;;;;;;28.35;17.90;;;;;;;12.76;55.16;99702.72;4974266;28;20030;-59
2021/03/26 08:32:23;;;;;;;27.52;17.63;;;;;;;13.54;52.94;99703.56;4973717;28;20049;-60
2021/03/26 08:35:14;;;;;;;26.13;18.50;;;;;;;13.44;52.91;99708.03;4974006;28;20538;-60
2021/03/26 08:38:14;;;;;;;27.30;18.15;;;;;;;14.19;50.49;99687.59;4972252;28;20047;-59
2021/03/26 08:40:49;;;;;;;24.73;17.55;;;;;;;14.22;50.17;99700.56;4972339;28;20049;-60
2021/03/26 08:43:16;;;;;;;19.73;14.27;;;;;;;13.61;50.65;99699.91;4941712;28;20452;-60
2021/03/26 08:45:44;;;;;;;20.17;15.50;;;;;;;13.89;50.80;99688.91;4956410;28;20046;-60
2021/03/26 08:48:15;;;;;;;23.58;16.45;;;;;;;14.87;48.61;99687.91;4940906;28;20038;-60
2021/03/26 08:50:45;;;;;;;23.60;15.30;;;;;;;14.24;50.03;99690.34;4972302;28;20034;-60
2021/03/26 08:53:34;;;;;;;;;;;;;;;14.48;49.30;99690.00;4976346;28;20027;-60
2021/03/26 08:56:37;;;;;;;22.10;15.98;;;;;;;14.67;48.86;99700.16;4970203;28;20388;-59
2021/03/26 08:59:24;;;;;;;20.20;13.52;;;;;;;14.44;49.64;99693.22;4977700;28;20456;-60
2021/03/26 09:02:10;;;;;;;22.13;15.25;;;;;;;14.19;50.08;99682.19;4977121;28;20047;-60
2021/03/26 09:04:51;;;;;;;20.98;14.88;;;;;;;14.40;49.82;99686.72;4976340;28;20050;-59
2021/03/26 09:07:48;;;;;;;24.00;14.48;;;;;;;14.45;49.79;99688.63;4977115;28;20035;-60
2021/03/26 09:10:51;;;;;;;23.58;15.10;;;;;;;14.44;49.62;99690.50;4975485;28;20105;-60
2021/03/26 09:13:41;;;;;;;19.25;13.65;;;;;;;14.86;49.42;99680.91;4963400;28;20500;-60
2021/03/26 09:16:10;;;;;;;20.30;14.32;;;;;;;14.68;47.94;99687.53;4976998;28;20486;-60
2021/03/26 09:18:47;;;;;;;19.23;13.35;;;;;;;15.77;46.88;99684.34;4975964;28;20485;-60
2021/03/26 09:21:16;;;;;;;18.55;12.93;;;;;;;15.39;46.52;99680.94;4975374;28;20046;-60
2021/03/26 09:23:59;;;;;;;17.10;11.68;;;;;;;15.26;45.99;99674.13;4977067;28;20601;-60
2021/03/26 09:26:48;;;;;;;16.73;10.45;;;;;;;14.99;46.34;99680.44;4976651;28;20489;-60
2021/03/26 09:29:32;;;;;;;15.63;10.32;;;;;;;15.68;45.34;99684.84;4975840;28;20440;-60
2021/03/26 09:32:10;;;;;;;15.52;9.90;;;;;;;15.53;44.70;99671.28;4960186;28;20069;-60
2021/03/26 09:34:37;;;;;;;15.15;9.85;;;;;;;16.40;42.47;99674.22;4975932;28;20065;-60
2021/03/26 09:37:13;;;;;;;15.07;9.80;;;;;;;17.11;42.04;99677.94;4959269;28;20405;-60
2021/03/26 09:39:39;;;;;;;13.90;9.90;;;;;;;16.93;42.44;99671.22;4959752;28;20496;-60
2021/03/26 09:42:25;;;;;;;15.48;9.63;;;;;;;17.08;41.14;99675.78;4975057;28;20046;-60
2021/03/26 09:44:58;;;;;;;12.27;7.97;;;;;;;16.92;40.14;99673.09;4975650;28;20525;-60
2021/03/26 09:47:30;;;;;;;13.18;8.18;;;;;;;16.99;40.36;99664.69;4959249;28;20038;-60
2021/03/26 09:50:23;;;;;;;12.68;8.40;;;;;;;16.52;41.46;99663.09;4975382;28;20058;-60
2021/03/26 09:52:48;;;;;;;13.55;8.48;;;;;;;14.90;45.75;99663.09;4974905;28;20070;-60
2021/03/26 09:55:40;;;;;;;14.13;8.15;;;;;;;16.26;42.00;99670.41;4975085;28;20467;-60
2021/03/26 09:58:26;;;;;;;12.45;7.53;;;;;;;14.95;44.15;99656.91;4972778;28;20039;-60
2021/03/26 10:01:17;;;;;;;7.95;5.55;;;;;;;13.97;45.80;99652.59;4974879;28;20058;-59
2021/03/26 10:03:50;;;;;;;10.18;7.45;;;;;;;14.51;45.24;99657.16;4974981;28;20022;-59
2021/03/26 10:06:28;;;;;;;11.40;7.20;;;;;;;14.93;44.24;99637.50;4974758;28;20039;-59
2021/03/26 10:09:08;;;;;;;11.75;6.50;;;;;;;14.73;44.48;99638.19;4976224;28;20486;-59
2021/03/26 10:11:46;;;;;;;8.95;5.68;;;;;;;14.91;42.89;99636.94;4975140;28;20038;-60
2021/03/26 10:14:23;;;;;;;10.13;6.32;;;;;;;14.19;45.21;99645.28;4975547;28;20030;-60
2021/03/26 10:17:10;;;;;;;9.88;5.60;;;;;;;15.54;41.25;99637.78;4974823;28;20035;-60
2021/03/26 10:19:42;;;;;;;11.15;5.35;;;;;;;14.53;43.52;99634.28;4976617;28;20381;-60
2021/03/26 10:22:47;;;;;;;8.63;5.43;;;;;;;15.23;41.98;99629.56;4975745;28;20066;-60
2021/03/26 10:25:36;;;;;;;9.15;5.60;;;;;;;14.24;43.76;99625.63;4944655;28;20043;-61
2021/03/26 10:28:32;;;;;;;8.13;4.93;;;;;;;14.08;43.75;99626.56;4974910;28;20027;-61
2021/03/26 10:31:02;;;;;;;7.55;4.15;;;;;;;14.83;42.10;99619.34;4974061;28;20102;-62
2021/03/26 10:33:27;;;;;;;7.33;5.07;;;;;;;14.62;42.55;99621.91;4975110;28;20057;-60
2021/03/26 10:36:01;;;;;;;10.77;4.70;;;;;;;15.38;41.73;99617.19;4974090;28;20438;-60
2021/03/26 10:38:46;;;;;;;8.63;4.97;;;;;;;15.63;40.93;99609.16;4959340;28;20536;-60
2021/03/26 10:41:30;;;;;;;7.15;4.53;;;;;;;15.96;39.12;99607.09;4960444;28;20043;-60
2021/03/26 10:44:02;;;;;;;9.15;5.10;;;;;;;15.78;39.89;99602.22;4974706;28;20054;-60
2021/03/26 10:46:36;;;;;;;8.88;4.60;;;;;;;15.62;41.04;99599.41;4975375;28;20055;-60
2021/03/26 10:49:10;;;;;;;7.00;4.20;;;;;;;15.62;39.72;99601.31;4974583;28;20166;-60
2021/03/26 10:51:48;;;;;;;6.05;3.97;;;;;;;16.72;37.25;99602.72;4957996;28;20441;-60
2021/03/26 10:54:22;;;;;;;9.30;4.60;;;;;;;16.74;37.77;99595.97;4974054;28;20030;-60
2021/03/26 10:56:56;;;;;;;6.20;4.03;;;;;;;14.91;42.03;99585.66;4973561;28;20042;-60
2021/03/26 10:59:34;;;;;;;6.88;4.07;;;;;;;14.87;40.89;99575.38;4975315;28;20062;-59
2021/03/26 11:02:20;;;;;;;7.53;4.22;;;;;;;15.07;40.82;99576.56;4957930;28;20085;-60
2021/03/26 11:04:46;;;;;;;5.85;3.03;;;;;;;14.00;41.84;99576.63;4944983;28;20073;-59
2021/03/26 11:07:14;;;;;;;8.20;3.80;;;;;;;14.97;41.06;99579.22;4957383;28;20101;-61
2021/03/26 11:09:41;;;;;;;5.43;3.50;;;;;;;15.96;39.25;99571.94;4957910;28;20054;-60
2021/03/26 11:12:22;;;;;;;5.80;3.50;;;;;;;15.64;38.50;99567.56;4973358;28;20046;-59
2021/03/26 11:14:59;;;;;;;6.53;3.38;;;;;;;15.85;38.82;99562.19;4973044;28;20492;-61
2021/03/26 11:17:34;;;;;;;7.25;3.30;;;;;;;16.14;37.78;99565.19;4974333;28;20484;-60
2021/03/26 11:20:26;;;;;;;6.00;3.42;;;;;;;15.20;39.21;99554.50;4973744;28;20081;-59
2021/03/26 11:23:11;;;;;;;6.93;3.70;;;;;;;15.42;38.66;99554.25;4973194;28;20122;-59
2021/03/26 11:25:39;;;;;;;7.03;3.40;;;;;;;15.78;38.82;99556.28;4963868;28;20035;-60
2021/03/26 11:28:25;;;;;;;6.00;3.60;;;;;;;15.59;39.27;99550.53;4973932;28;20105;-60
2021/03/26 11:30:57;;;;;;;8.93;3.80;;;;;;;15.23;38.76;99540.44;4959796;28;20054;-61
2021/03/26 11:33:30;;;;;;;7.93;5.60;;;;;;;15.77;37.95;99543.81;4957400;28;20023;-60
2021/03/26 11:35:56;;;;;;;9.90;5.00;;;;;;;16.11;37.67;99538.69;4973231;28;20038;-61
2021/03/26 11:38:32;;;;;;;6.50;3.90;;;;;;;16.21;37.98;99536.00;4973435;28;20019;-61
2021/03/26 11:41:10;;;;;;;5.90;4.10;;;;;;;16.54;39.07;99531.88;4973042;28;20086;-61
2021/03/26 11:43:39;;;;;;;8.13;4.03;;;;;;;16.12;37.78;99529.50;4957640;28;20027;-60
2021/03/26 11:46:07;;;;;;;8.02;4.03;;;;;;;16.33;38.06;99524.88;4957309;28;20066;-60
2021/03/26 11:48:43;;;;;;;9.35;4.53;;;;;;;16.28;37.17;99522.19;4973716;28;20035;-60
2021/03/26 11:51:18;;;;;;;10.65;6.05;;;;;;;16.50;37.30;99511.88;4957698;28;20129;-60
2021/03/26 11:53:45;;;;;;;8.35;5.70;;;;;;;16.16;37.25;99515.16;4974756;28;20018;-61
2021/03/26 11:56:34;;;;;;;8.90;3.88;;;;;;;16.12;37.82;99507.88;4973895;28;20106;-61
2021/03/26 11:59:05;;;;;;;5.75;3.90;;;;;;;15.89;37.47;99507.34;4973474;28;20033;-62
2021/03/26 12:01:53;;;;;;;5.93;3.00;;;;;;;15.17;38.20;99511.78;4974385;28;20039;-61
2021/03/26 12:04:21;;;;;;;6.38;3.33;;;;;;;15.99;37.60;99503.81;4973711;28;20050;-60
2021/03/26 12:07:42;;;;;;;5.43;3.30;;;;;;;15.38;36.86;99503.78;4956795;28;20370;-60
2021/03/26 12:10:28;;;;;;;7.22;3.80;;;;;;;14.66;37.95;99498.13;4910722;29;20048;-61
2021/03/26 12:13:03;;;;;;;7.35;3.60;;;;;;;14.94;39.29;99496.06;4938138;29;20410;-60
2021/03/26 12:15:32;;;;;;;8.05;3.53;;;;;;;15.30;38.45;99492.41;4941710;28;20063;-62